• Join FlightAware (Why Join?)
  • Login
  • US Flag 
05:08AM EDT


 

Airport Tracker/Info


-or-


 

Live Flight TrackerFlight Track Log ✈ N34996 ✈ 27-Apr-2013 ✈ KLBX - KOCH

Flight Track Log - Related Links

Times and Time Zones

All times are in EDT time to prevent confusion due to time zone crossing. See the N34996 flight status page for this flight to view local times or setup timezone preferences in your user account.

Time Position Orientation Groundspeed Altitude Reporting Facility
EDT Latitude Longitude Course Direction KTS MPH feet Rate Location/Type
01:45PM 29.1136 -95.4619 185° South 56 64 100  Level Houston Center
01:46PM 29.1033 -95.4631 185° South 62 71 400 420 Climbing Houston Center
01:46PM 29.0950 -95.4642 187° South 64 74 600 240 Climbing Houston Center
01:47PM 29.0861 -95.4581 149° Southeast 85 98 700 360 Climbing Houston Center
01:47PM 29.0842 -95.4447 99° East 64 74 1,000 480 Climbing Houston Center
01:48PM 29.0836 -95.4319 93° East 90 104 1,200 360 Climbing Houston Center
01:48PM 29.0886 -95.4192 66° East 81 93 1,400 360 Climbing Houston Center
01:49PM 29.0983 -95.4086 43° Northeast 91 105 1,600 480 Climbing Houston Center
01:49PM 29.1064 -95.3978 50° Northeast 86 99 1,900 360 Climbing Houston Center
01:50PM 29.1172 -95.3872 40° Northeast 93 107 2,000 360 Climbing Houston Center
01:50PM 29.1247 -95.3753 54° Northeast 92 106 2,300 420 Climbing Houston Center
01:51PM 29.1381 -95.3608 43° Northeast 99 114 2,500 240 Climbing Houston Center
01:51PM 29.1433 -95.3517 57° Northeast 96 110 2,600 360 Climbing Houston Center
01:52PM 29.1567 -95.3347 48° Northeast 105 121 2,900 480 Climbing Houston Center
01:52PM 29.1678 -95.3233 42° Northeast 101 116 3,100 180 Climbing Houston Center
01:53PM 29.1819 -95.3125 34° Northeast 118 136 3,100  Level Houston Center
01:53PM 29.1953 -95.2978 44° Northeast 116 133 3,100  Level Houston Center
01:54PM 29.2086 -95.2856 39° Northeast 130 150 3,100  Level Houston Center
01:54PM 29.2222 -95.2714 42° Northeast 124 143 3,100  Level Houston Center
01:55PM 29.2339 -95.2608 38° Northeast 138 159 3,100  Level Houston Center
01:55PM 29.2497 -95.2456 40° Northeast 126 145 3,100  Level Houston Center
01:56PM 29.2778 -95.2186 40° Northeast 129 148 3,100  Level Houston Center
01:57PM 29.2919 -95.2083 32° Northeast 130 150 3,100  Level Houston Center
01:57PM 29.3064 -95.1925 44° Northeast 131 151 3,100  Level Houston Center
01:58PM 29.3208 -95.1808 35° Northeast 129 148 3,100  Level Houston Center
01:58PM 29.3400 -95.1622 40° Northeast 130 150 3,100  Level Houston Center
01:59PM 29.3478 -95.1558 36° Northeast 128 147 3,100  Level Houston Center
01:59PM 29.3678 -95.1367 40° Northeast 129 148 3,100  Level Houston Center
02:00PM 29.3789 -95.1283 33° Northeast 129 148 3,100  Level Houston Center
02:01PM 29.3953 -95.1106 43° Northeast 129 148 3,100  Level Houston Center
02:01PM 29.4078 -95.1006 35° Northeast 128 147 3,100  Level Houston Center
02:02PM 29.4236 -95.0850 41° Northeast 129 148 3,100  Level Houston Center
02:02PM 29.4386 -95.0706 40° Northeast 132 152 3,100  Level Houston Center
02:03PM 29.4536 -95.0642 20° North 137 158 3,100 180 Level Houston Center
02:03PM 29.4717 -95.0642 360° North 128 147 3,300 240 Climbing Houston Center
02:04PM 29.4900 -95.0625 North 133 153 3,400 240 Climbing Houston Center
02:04PM 29.5072 -95.0622 North 125 144 3,600 360 Climbing Houston Center
02:05PM 29.5306 -95.0581 North 127 146 3,800 360 Climbing Houston Center
02:05PM 29.5444 -95.0575 North 118 136 4,000 480 Climbing Houston Center
02:06PM 29.5617 -95.0533 12° North 118 136 4,300 480 Climbing Houston Center
02:06PM 29.5756 -95.0536 359° North 107 123 4,500 360 Climbing Houston Center
02:07PM 29.5906 -95.0539 359° North 106 122 4,700 480 Climbing Houston Center
02:07PM 29.6053 -95.0547 357° North 99 114 5,000 360 Climbing Houston Center
02:08PM 29.6172 -95.0547 360° North 95 109 5,100 60 Climbing Houston Center
02:08PM 29.6325 -95.0561 355° North 109 125 5,100  Level Houston Center
02:09PM 29.6478 -95.0550 North 109 125 5,100  Level Houston Center
02:10PM 29.6872 -95.0558 359° North 118 136 5,100  Level Houston Center
02:10PM 29.7000 -95.0575 354° North 123 142 5,100  Level Houston Center
02:11PM 29.7203 -95.0578 359° North 120 138 5,100  Level Houston Center
02:11PM 29.7317 -95.0586 356° North 120 138 5,100  Level Houston Center
02:12PM 29.7536 -95.0575 North 119 137 5,100  Level Houston Center
02:12PM 29.7694 -95.0586 357° North 119 137 5,100  Level Houston Center
02:13PM 29.7878 -95.0586 360° North 123 142 5,100  Level Houston Center
02:13PM 29.8031 -95.0592 358° North 122 140 5,100  Level Houston Center
02:14PM 29.8214 -95.0575 North 122 140 5,100  Level Houston Center
02:14PM 29.8364 -95.0575 360° North 126 145 5,100  Level Houston Center
02:15PM 29.8644 -95.0572 360° North 129 148 5,100  Level Houston Center
02:15PM 29.8764 -95.0575 359° North 127 146 5,100  Level Houston Center
02:16PM 29.8997 -95.0569 North 128 147 5,100  Level Houston Center
02:16PM 29.9142 -95.0575 358° North 129 148 5,100  Level Houston Center
02:17PM 29.9358 -95.0572 North 130 150 5,100  Level Houston Center
02:18PM 29.9706 -95.0572 360° North 127 146 5,100  Level Houston Center
02:19PM 30.0056 -95.0489 12° North 127 146 5,100  Level Houston Center
02:20PM 30.0406 -95.0417 10° North 128 147 5,100  Level Houston Center
02:21PM 30.0836 -95.0331 10° North 131 151 5,100  Level Houston Center
02:22PM 30.1186 -95.0250 11° North 128 147 5,100  Level Houston Center
02:23PM 30.1528 -95.0169 12° North 127 146 5,100  Level Houston Center
02:24PM 30.1892 -95.0108 North 129 148 5,100  Level Houston Center
02:25PM 30.2242 -95.0028 11° North 130 150 5,100  Level Houston Center
02:26PM 30.2594 -94.9944 12° North 130 150 5,100  Level Houston Center
02:27PM 30.3022 -94.9853 10° North 130 150 5,100  Level Houston Center
02:28PM 30.3381 -94.9800 North 131 151 5,100  Level Houston Center
02:29PM 30.3722 -94.9717 12° North 127 146 5,100  Level Houston Center
02:30PM 30.4069 -94.9642 11° North 127 146 5,100 -60 Level Houston Center
02:32PM 30.4422 -94.9564 11° North 129 148 5,000 -60 Descending Houston Center
02:33PM 30.4803 -94.9469 12° North 130 150 5,000  Level Houston Center
02:34PM 30.5158 -94.9408 North 129 148 5,000  Level Houston Center
02:35PM 30.5511 -94.9331 11° North 128 147 5,000  Level Houston Center
02:36PM 30.5942 -94.9244 10° North 130 150 5,000 -300 Level Houston Center
02:37PM 30.6325 -94.9156 11° North 137 158 4,500 -540 Descending Houston Center
02:38PM 30.6733 -94.9081 North 147 169 4,000 -300 Descending Houston Center
02:39PM 30.7111 -94.8986 12° North 140 161 4,000  Level Houston Center
02:40PM 30.7467 -94.8914 10° North 132 152 4,000  Level Houston Center
02:41PM 30.7814 -94.8836 11° North 128 147 4,000  Level Houston Center
02:42PM 30.8242 -94.8733 12° North 129 148 4,000  Level Houston Center
02:43PM 30.8597 -94.8667 North 130 150 4,000  Level Houston Center
02:44PM 30.8958 -94.8586 11° North 131 151 4,000  Level Houston Center
02:45PM 30.9300 -94.8508 11° North 126 145 4,000  Level Houston Center
02:46PM 30.9647 -94.8442 North 126 145 4,000 -60 Level Houston Center
02:47PM 30.9997 -94.8369 10° North 127 146 3,900  Descending Houston Center
02:48PM 31.0425 -94.8261 12° North 129 148 4,000  Climbing Houston Center
02:49PM 31.0769 -94.8189 10° North 128 147 3,900  Descending Houston Center
02:50PM 31.1122 -94.8061 17° North 129 148 4,000  Climbing Houston Center
02:51PM 31.1472 -94.7942 16° North 131 151 4,000  Level Houston Center
02:52PM 31.1808 -94.7819 17° North 129 148 4,000 -60 Level Houston Center
02:53PM 31.2153 -94.7694 17° North 127 146 3,900  Descending Houston Center
02:54PM 31.2500 -94.7689 North 122 140 4,000  Climbing Houston Center
02:55PM 31.2867 -94.7622 North 126 145 4,000  Level Houston Center
02:56PM 31.3208 -94.7556 North 126 145 4,000  Level Houston Center
02:57PM 31.3558 -94.7492 North 126 145 4,000  Level Houston Center
02:58PM 31.3978 -94.7417 North 127 146 4,000 -120 Level Houston Center
02:59PM 31.4322 -94.7358 North 125 144 3,800 -420 Descending Houston Center
03:00PM 31.4700 -94.7286 North 130 150 3,200 -600 Descending Houston Center